PWSweather.com
Personal Weather Stations
Station Observations

PoschiavoCH

Lat: 46.31962499999999, Lon: 10.066551000000004

Elevation: 3517

Station Type: WH 1080

http://www.meteoposchiavo.com

High Low Average
Temperature 69.0°F20.6°C 31.0°F-0.6°C 44.8°F7.1°C
Dew Point 30.3°F-0.9°C 14.3°F-9.8°C 21.8°F-5.7°C
Winds 3.5 mph 5.6 kmh Calm Calm Calm SECalm SE
Wind Gusts 5.8 mph9.3 kmh -- 1.0 mph1.6 kmh
Humidity 64% 19% 43%
Pressure 27.01 in914.7 mb 26.82 in908.2 mb -
Precipitation 0.00 in0.0 mm - -
Hour Temp Dew Point Humidity Winds Wind Gusts Pressure Precip Precip Rate Daily Precip Total
12:00 AM 34.0°F1.1°C 22.0°F-5.6°C 61% Calm Calm -- 27.00 in914.3 mb - 0.00 in0.0 mm 0.00 in0.0 mm
12:10 AM 33.0°F0.6°C 21.8°F-5.7°C 63% Calm Calm -- 26.99 in914.0 mb - 0.00 in0.0 mm 0.00 in0.0 mm
12:15 AM 33.0°F0.6°C 21.8°F-5.7°C 63% Calm Calm -- 27.00 in914.3 mb - 0.00 in0.0 mm 0.00 in0.0 mm
12:20 AM 33.0°F0.6°C 21.4°F-5.9°C 62% Calm Calm -- 26.99 in914.0 mb - 0.00 in0.0 mm 0.00 in0.0 mm
12:25 AM 33.0°F0.6°C 21.0°F-6.1°C 61% Calm Calm -- 27.00 in914.3 mb - 0.00 in0.0 mm 0.00 in0.0 mm
12:30 AM 33.0°F0.6°C 21.4°F-5.9°C 62% Calm Calm 1.2 mph1.9 kmh 27.00 in914.3 mb - 0.00 in0.0 mm 0.00 in0.0 mm
12:35 AM 34.0°F1.1°C 22.0°F-5.6°C 61% Calm Calm -- 27.00 in914.3 mb - 0.00 in0.0 mm 0.00 in0.0 mm
12:40 AM 34.0°F1.1°C 22.3°F-5.4°C 62% Calm Calm -- 27.00 in914.3 mb - 0.00 in0.0 mm 0.00 in0.0 mm
12:45 AM 34.0°F1.1°C 22.3°F-5.4°C 62% Calm Calm -- 27.00 in914.3 mb - 0.00 in0.0 mm 0.00 in0.0 mm
12:50 AM 34.0°F1.1°C 22.7°F-5.2°C 63% Calm Calm -- 26.99 in914.0 mb - 0.00 in0.0 mm 0.00 in0.0 mm
12:55 AM 34.0°F1.1°C 21.6°F-5.8°C 60% Calm Calm -- 27.00 in914.3 mb - 0.00 in0.0 mm 0.00 in0.0 mm
01:00 AM 34.0°F1.1°C 22.3°F-5.4°C 62% Calm Calm -- 27.00 in914.3 mb - 0.00 in0.0 mm 0.00 in0.0 mm
01:10 AM 33.0°F0.6°C 21.4°F-5.9°C 62% Calm Calm -- 26.99 in914.0 mb - 0.00 in0.0 mm 0.00 in0.0 mm
01:15 AM 33.0°F0.6°C 21.8°F-5.7°C 63% Calm Calm -- 26.99 in914.0 mb - 0.00 in0.0 mm 0.00 in0.0 mm
01:20 AM 33.0°F0.6°C 21.8°F-5.7°C 63% Calm Calm -- 27.00 in914.3 mb - 0.00 in0.0 mm 0.00 in0.0 mm
01:25 AM 33.0°F0.6°C 22.1°F-5.5°C 64% Calm Calm -- 27.01 in914.7 mb - 0.00 in0.0 mm 0.00 in0.0 mm
01:30 AM 32.4°F0.2°C 21.2°F-6.0°C 63% Calm Calm -- 27.00 in914.3 mb - 0.00 in0.0 mm 0.00 in0.0 mm
01:35 AM 32.0°F0.0°C 20.8°F-6.2°C 63% Calm Calm -- 27.00 in914.3 mb - 0.00 in0.0 mm 0.00 in0.0 mm
01:40 AM 32.0°F0.0°C 20.8°F-6.2°C 63% Calm Calm -- 27.00 in914.3 mb - 0.00 in0.0 mm 0.00 in0.0 mm
01:45 AM 33.0°F0.6°C 21.4°F-5.9°C 62% Calm Calm -- 27.00 in914.3 mb - 0.00 in0.0 mm 0.00 in0.0 mm
01:50 AM 32.0°F0.0°C 20.8°F-6.2°C 63% Calm Calm -- 27.00 in914.3 mb - 0.00 in0.0 mm 0.00 in0.0 mm
01:55 AM 33.0°F0.6°C 21.0°F-6.1°C 61% Calm Calm -- 27.00 in914.3 mb - 0.00 in0.0 mm 0.00 in0.0 mm
02:00 AM 34.0°F1.1°C 21.2°F-6.0°C 59% Calm Calm -- 27.00 in914.3 mb - 0.00 in0.0 mm 0.00 in0.0 mm
02:10 AM 32.0°F0.0°C 20.1°F-6.6°C 61% Calm Calm -- 27.00 in914.3 mb - 0.00 in0.0 mm 0.00 in0.0 mm
02:15 AM 32.0°F0.0°C 20.1°F-6.6°C 61% Calm Calm -- 27.00 in914.3 mb - 0.00 in0.0 mm 0.00 in0.0 mm
02:20 AM 32.0°F0.0°C 20.1°F-6.6°C 61% Calm Calm -- 27.00 in914.3 mb - 0.00 in0.0 mm 0.00 in0.0 mm
02:25 AM 32.0°F0.0°C 20.4°F-6.4°C 62% Calm Calm -- 27.01 in914.7 mb - 0.00 in0.0 mm 0.00 in0.0 mm
02:30 AM 32.0°F0.0°C 21.2°F-6.0°C 64% Calm Calm -- 27.00 in914.3 mb - 0.00 in0.0 mm 0.00 in0.0 mm
02:35 AM 33.0°F0.6°C 20.6°F-6.3°C 60% Calm Calm -- 26.99 in914.0 mb - 0.00 in0.0 mm 0.00 in0.0 mm
02:40 AM 34.0°F1.1°C 20.8°F-6.2°C 58% Calm Calm -- 26.99 in914.0 mb - 0.00 in0.0 mm 0.00 in0.0 mm
02:45 AM 33.0°F0.6°C 21.0°F-6.1°C 61% Calm Calm -- 27.00 in914.3 mb - 0.00 in0.0 mm 0.00 in0.0 mm
02:50 AM 33.0°F0.6°C 21.4°F-5.9°C 62% Calm Calm -- 26.99 in914.0 mb - 0.00 in0.0 mm 0.00 in0.0 mm
02:55 AM 32.0°F0.0°C 19.3°F-7.1°C 59% Calm Calm -- 27.00 in914.3 mb - 0.00 in0.0 mm 0.00 in0.0 mm
03:00 AM 34.0°F1.1°C 20.3°F-6.5°C 57% Calm Calm -- 26.99 in914.0 mb - 0.00 in0.0 mm 0.00 in0.0 mm
03:10 AM 33.3°F0.7°C 20.1°F-6.6°C 58% Calm Calm -- 26.99 in914.0 mb - 0.00 in0.0 mm 0.00 in0.0 mm
03:15 AM 34.0°F1.1°C 21.2°F-6.0°C 59% Calm Calm -- 26.99 in914.0 mb - 0.00 in0.0 mm 0.00 in0.0 mm
03:20 AM 33.0°F0.6°C 19.8°F-6.8°C 58% Calm Calm -- 27.00 in914.3 mb - 0.00 in0.0 mm 0.00 in0.0 mm
03:25 AM 33.0°F0.6°C 19.4°F-7.0°C 57% Calm Calm -- 26.99 in914.0 mb - 0.00 in0.0 mm 0.00 in0.0 mm
03:30 AM 34.0°F1.1°C 19.9°F-6.7°C 56% Calm Calm -- 26.99 in914.0 mb - 0.00 in0.0 mm 0.00 in0.0 mm
03:35 AM 34.0°F1.1°C 18.6°F-7.4°C 53% Calm Calm -- 26.99 in914.0 mb - 0.00 in0.0 mm 0.00 in0.0 mm
03:40 AM 34.0°F1.1°C 19.9°F-6.7°C 56% Calm Calm -- 26.99 in914.0 mb - 0.00 in0.0 mm 0.00 in0.0 mm
03:45 AM 33.0°F0.6°C 19.0°F-7.2°C 56% Calm Calm -- 26.99 in914.0 mb - 0.00 in0.0 mm 0.00 in0.0 mm
03:50 AM 34.0°F1.1°C 19.5°F-6.9°C 55% Calm Calm -- 26.99 in914.0 mb - 0.00 in0.0 mm 0.00 in0.0 mm
03:55 AM 34.0°F1.1°C 20.3°F-6.5°C 57% Calm Calm -- 26.99 in914.0 mb - 0.00 in0.0 mm 0.00 in0.0 mm
04:00 AM 33.0°F0.6°C 19.4°F-7.0°C 57% Calm Calm -- 26.99 in914.0 mb - 0.00 in0.0 mm 0.00 in0.0 mm
04:10 AM 34.0°F1.1°C 19.1°F-7.2°C 54% Calm Calm -- 26.99 in914.0 mb - 0.00 in0.0 mm 0.00 in0.0 mm
04:15 AM 33.0°F0.6°C 19.8°F-6.8°C 58% Calm Calm -- 26.99 in914.0 mb - 0.00 in0.0 mm 0.00 in0.0 mm
04:20 AM 32.0°F0.0°C 18.5°F-7.5°C 57% Calm Calm -- 26.99 in914.0 mb - 0.00 in0.0 mm 0.00 in0.0 mm
04:25 AM 32.0°F0.0°C 18.5°F-7.5°C 57% Calm Calm -- 26.99 in914.0 mb - 0.00 in0.0 mm 0.00 in0.0 mm
04:30 AM 33.0°F0.6°C 19.0°F-7.2°C 56% Calm Calm -- 26.98 in913.6 mb - 0.00 in0.0 mm 0.00 in0.0 mm
04:35 AM 32.0°F0.0°C 19.3°F-7.1°C 59% Calm Calm -- 26.99 in914.0 mb - 0.00 in0.0 mm 0.00 in0.0 mm
04:40 AM 32.0°F0.0°C 18.5°F-7.5°C 57% Calm Calm -- 26.98 in913.6 mb - 0.00 in0.0 mm 0.00 in0.0 mm
04:45 AM 32.0°F0.0°C 18.1°F-7.7°C 56% Calm Calm -- 26.98 in913.6 mb - 0.00 in0.0 mm 0.00 in0.0 mm
04:50 AM 32.0°F0.0°C 17.6°F-8.0°C 55% Calm Calm -- 26.98 in913.6 mb - 0.00 in0.0 mm 0.00 in0.0 mm
04:55 AM 32.0°F0.0°C 18.1°F-7.7°C 56% Calm Calm -- 26.98 in913.6 mb - 0.00 in0.0 mm 0.00 in0.0 mm
05:00 AM 32.0°F0.0°C 17.6°F-8.0°C 55% Calm Calm -- 26.98 in913.6 mb - 0.00 in0.0 mm 0.00 in0.0 mm
05:10 AM 31.0°F-0.6°C 17.5°F-8.1°C 57% Calm Calm -- 26.99 in914.0 mb - 0.00 in0.0 mm 0.00 in0.0 mm
05:15 AM 32.0°F0.0°C 17.2°F-8.2°C 54% Calm Calm -- 26.98 in913.6 mb - 0.00 in0.0 mm 0.00 in0.0 mm
05:20 AM 32.0°F0.0°C 18.1°F-7.7°C 56% Calm Calm -- 26.99 in914.0 mb - 0.00 in0.0 mm 0.00 in0.0 mm
05:25 AM 32.0°F0.0°C 17.6°F-8.0°C 55% Calm Calm -- 26.99 in914.0 mb - 0.00 in0.0 mm 0.00 in0.0 mm
05:30 AM 32.0°F0.0°C 18.1°F-7.7°C 56% Calm Calm -- 26.99 in914.0 mb - 0.00 in0.0 mm 0.00 in0.0 mm
05:35 AM 32.0°F0.0°C 18.5°F-7.5°C 57% Calm Calm -- 26.99 in914.0 mb - 0.00 in0.0 mm 0.00 in0.0 mm
05:40 AM 32.0°F0.0°C 18.9°F-7.3°C 58% Calm Calm -- 26.99 in914.0 mb - 0.00 in0.0 mm 0.00 in0.0 mm
05:45 AM 32.0°F0.0°C 18.5°F-7.5°C 57% Calm Calm -- 26.99 in914.0 mb - 0.00 in0.0 mm 0.00 in0.0 mm
05:50 AM 32.0°F0.0°C 17.6°F-8.0°C 55% Calm Calm -- 26.99 in914.0 mb - 0.00 in0.0 mm 0.00 in0.0 mm
05:55 AM 33.0°F0.6°C 16.4°F-8.7°C 50% Calm Calm -- 26.99 in914.0 mb - 0.00 in0.0 mm 0.00 in0.0 mm
06:00 AM 32.0°F0.0°C 17.2°F-8.2°C 54% Calm Calm -- 26.99 in914.0 mb - 0.00 in0.0 mm 0.00 in0.0 mm
06:10 AM 32.0°F0.0°C 17.2°F-8.2°C 54% Calm Calm -- 27.00 in914.3 mb - 0.00 in0.0 mm 0.00 in0.0 mm
06:15 AM 32.0°F0.0°C 17.6°F-8.0°C 55% Calm Calm -- 27.00 in914.3 mb - 0.00 in0.0 mm 0.00 in0.0 mm
06:20 AM 32.0°F0.0°C 17.6°F-8.0°C 55% Calm Calm -- 27.00 in914.3 mb - 0.00 in0.0 mm 0.00 in0.0 mm
06:25 AM 32.0°F0.0°C 17.2°F-8.2°C 54% Calm Calm -- 27.00 in914.3 mb - 0.00 in0.0 mm 0.00 in0.0 mm
06:30 AM 32.0°F0.0°C 16.8°F-8.4°C 53% Calm Calm -- 27.00 in914.3 mb - 0.00 in0.0 mm 0.00 in0.0 mm
06:35 AM 32.0°F0.0°C 17.6°F-8.0°C 55% Calm Calm -- 27.00 in914.3 mb - 0.00 in0.0 mm 0.00 in0.0 mm
06:40 AM 32.0°F0.0°C 18.5°F-7.5°C 57% Calm Calm -- 27.00 in914.3 mb - 0.00 in0.0 mm 0.00 in0.0 mm
06:45 AM 32.0°F0.0°C 17.2°F-8.2°C 54% Calm Calm -- 27.00 in914.3 mb - 0.00 in0.0 mm 0.00 in0.0 mm
06:50 AM 32.0°F0.0°C 17.2°F-8.2°C 54% Calm Calm -- 26.99 in914.0 mb - 0.00 in0.0 mm 0.00 in0.0 mm
06:55 AM 32.0°F0.0°C 17.6°F-8.0°C 55% Calm Calm -- 27.00 in914.3 mb - 0.00 in0.0 mm 0.00 in0.0 mm
07:00 AM 33.0°F0.6°C 16.8°F-8.4°C 51% Calm Calm -- 27.00 in914.3 mb - 0.00 in0.0 mm 0.00 in0.0 mm
07:10 AM 32.2°F0.1°C 18.2°F-7.7°C 56% Calm Calm -- 27.00 in914.3 mb - 0.00 in0.0 mm 0.00 in0.0 mm
07:15 AM 32.0°F0.0°C 18.5°F-7.5°C 57% Calm Calm -- 27.00 in914.3 mb - 0.00 in0.0 mm 0.00 in0.0 mm
07:20 AM 32.0°F0.0°C 18.5°F-7.5°C 57% Calm Calm -- 26.99 in914.0 mb - 0.00 in0.0 mm 0.00 in0.0 mm
07:25 AM 32.0°F0.0°C 17.2°F-8.2°C 54% Calm Calm -- 27.00 in914.3 mb - 0.00 in0.0 mm 0.00 in0.0 mm
07:30 AM 33.0°F0.6°C 17.3°F-8.2°C 52% Calm Calm -- 27.00 in914.3 mb - 0.00 in0.0 mm 0.00 in0.0 mm
07:35 AM 33.0°F0.6°C 16.8°F-8.4°C 51% Calm Calm -- 27.00 in914.3 mb - 0.00 in0.0 mm 0.00 in0.0 mm
07:40 AM 33.0°F0.6°C 18.1°F-7.7°C 54% Calm Calm -- 27.00 in914.3 mb - 0.00 in0.0 mm 0.00 in0.0 mm
07:45 AM 32.0°F0.0°C 18.5°F-7.5°C 57% Calm Calm -- 26.99 in914.0 mb - 0.00 in0.0 mm 0.00 in0.0 mm
07:50 AM 32.0°F0.0°C 18.5°F-7.5°C 57% Calm Calm -- 27.00 in914.3 mb - 0.00 in0.0 mm 0.00 in0.0 mm
07:55 AM 32.0°F0.0°C 18.1°F-7.7°C 56% Calm Calm -- 27.00 in914.3 mb - 0.00 in0.0 mm 0.00 in0.0 mm
08:00 AM 32.7°F0.4°C 17.9°F-7.8°C 54% Calm Calm -- 27.00 in914.3 mb - 0.00 in0.0 mm 0.00 in0.0 mm
08:10 AM 33.0°F0.6°C 19.0°F-7.2°C 56% Calm Calm -- 27.01 in914.7 mb - 0.00 in0.0 mm 0.00 in0.0 mm
08:15 AM 32.0°F0.0°C 18.5°F-7.5°C 57% Calm Calm -- 27.00 in914.3 mb - 0.00 in0.0 mm 0.00 in0.0 mm
08:20 AM 33.0°F0.6°C 18.1°F-7.7°C 54% Calm Calm -- 27.00 in914.3 mb - 0.00 in0.0 mm 0.00 in0.0 mm
08:25 AM 33.0°F0.6°C 18.1°F-7.7°C 54% Calm Calm -- 27.00 in914.3 mb - 0.00 in0.0 mm 0.00 in0.0 mm
08:30 AM 34.0°F1.1°C 18.2°F-7.7°C 52% Calm Calm -- 26.99 in914.0 mb - 0.00 in0.0 mm 0.00 in0.0 mm
08:35 AM 35.0°F1.7°C 19.6°F-6.9°C 53% Calm Calm -- 26.99 in914.0 mb - 0.00 in0.0 mm 0.00 in0.0 mm
08:40 AM 36.0°F2.2°C 19.1°F-7.2°C 50% Calm Calm -- 26.98 in913.6 mb - 0.00 in0.0 mm 0.00 in0.0 mm
08:45 AM 37.0°F2.8°C 20.1°F-6.6°C 50% Calm Calm -- 26.98 in913.6 mb - 0.00 in0.0 mm 0.00 in0.0 mm
08:50 AM 37.7°F3.2°C 20.7°F-6.3°C 50% Calm Calm -- 26.98 in913.6 mb - 0.00 in0.0 mm 0.00 in0.0 mm
08:55 AM 38.2°F3.4°C 20.2°F-6.6°C 48% Calm Calm -- 26.98 in913.6 mb - 0.00 in0.0 mm 0.00 in0.0 mm
09:00 AM 39.0°F3.9°C 17.3°F-8.2°C 41% Calm Calm -- 26.97 in913.3 mb - 0.00 in0.0 mm 0.00 in0.0 mm
09:10 AM 41.0°F5.0°C 17.3°F-8.2°C 38% Calm Calm -- 26.97 in913.3 mb - 0.00 in0.0 mm 0.00 in0.0 mm
09:15 AM 42.0°F5.6°C 18.8°F-7.3°C 39% Calm Calm -- 26.97 in913.3 mb - 0.00 in0.0 mm 0.00 in0.0 mm
09:20 AM 42.0°F5.6°C 17.6°F-8.0°C 37% Calm Calm -- 26.97 in913.3 mb - 0.00 in0.0 mm 0.00 in0.0 mm
09:25 AM 43.0°F6.1°C 18.5°F-7.5°C 37% Calm Calm -- 26.97 in913.3 mb - 0.00 in0.0 mm 0.00 in0.0 mm
09:30 AM 44.0°F6.7°C 17.4°F-8.1°C 34% Calm Calm -- 26.96 in913.0 mb - 0.00 in0.0 mm 0.00 in0.0 mm
09:35 AM 44.0°F6.7°C 18.7°F-7.4°C 36% Calm Calm -- 26.96 in913.0 mb - 0.00 in0.0 mm 0.00 in0.0 mm
09:40 AM 44.6°F7.0°C 17.9°F-7.8°C 34% Calm Calm -- 26.95 in912.6 mb - 0.00 in0.0 mm 0.00 in0.0 mm
09:45 AM 45.1°F7.3°C 16.9°F-8.4°C 32% Calm Calm -- 26.95 in912.6 mb - 0.00 in0.0 mm 0.00 in0.0 mm
09:50 AM 46.0°F7.8°C 14.7°F-9.6°C 28% Calm Calm -- 26.95 in912.6 mb - 0.00 in0.0 mm 0.00 in0.0 mm
09:55 AM 47.0°F8.3°C 17.1°F-8.3°C 30% Calm Calm -- 26.95 in912.6 mb - 0.00 in0.0 mm 0.00 in0.0 mm
10:00 AM 48.0°F8.9°C 18.0°F-7.8°C 30% Calm Calm -- 26.95 in912.6 mb - 0.00 in0.0 mm 0.00 in0.0 mm
10:10 AM 49.0°F9.4°C 17.3°F-8.2°C 28% Calm Calm -- 26.94 in912.3 mb - 0.00 in0.0 mm 0.00 in0.0 mm
10:15 AM 50.0°F10.0°C 14.6°F-9.7°C 24% Calm Calm -- 26.94 in912.3 mb - 0.00 in0.0 mm 0.00 in0.0 mm
10:20 AM 52.0°F11.1°C 16.3°F-8.7°C 24% Calm Calm -- 26.93 in912.0 mb - 0.00 in0.0 mm 0.00 in0.0 mm
10:25 AM 56.0°F13.3°C 15.4°F-9.2°C 20% Calm Calm -- 26.93 in912.0 mb - 0.00 in0.0 mm 0.00 in0.0 mm
10:30 AM 56.5°F13.6°C 15.8°F-9.0°C 20% Calm Calm -- 26.93 in912.0 mb - 0.00 in0.0 mm 0.00 in0.0 mm
10:35 AM 57.0°F13.9°C 16.3°F-8.7°C 20% Calm Calm -- 26.92 in911.6 mb - 0.00 in0.0 mm 0.00 in0.0 mm
10:40 AM 56.0°F13.3°C 18.7°F-7.4°C 23% Calm Calm -- 26.92 in911.6 mb - 0.00 in0.0 mm 0.00 in0.0 mm
10:45 AM 56.0°F13.3°C 19.7°F-6.8°C 24% Calm Calm -- 26.92 in911.6 mb - 0.00 in0.0 mm 0.00 in0.0 mm
10:50 AM 55.0°F12.8°C 18.8°F-7.3°C 24% 2.3 mph SW3.7 kmh SW 3.5 mph5.6 kmh 26.91 in911.3 mb - 0.00 in0.0 mm 0.00 in0.0 mm
10:55 AM 55.0°F12.8°C 17.8°F-7.9°C 23% 1.2 mph NNW1.9 kmh NNW 1.2 mph1.9 kmh 26.91 in911.3 mb - 0.00 in0.0 mm 0.00 in0.0 mm
11:00 AM 55.0°F12.8°C 15.7°F-9.1°C 21% 2.3 mph WNW3.7 kmh WNW 2.3 mph3.7 kmh 26.91 in911.3 mb - 0.00 in0.0 mm 0.00 in0.0 mm
11:10 AM 56.0°F13.3°C 14.3°F-9.8°C 19% 2.3 mph WSW3.7 kmh WSW 2.3 mph3.7 kmh 26.90 in910.9 mb - 0.00 in0.0 mm 0.00 in0.0 mm
11:15 AM 56.0°F13.3°C 16.6°F-8.6°C 21% 1.2 mph WNW1.9 kmh WNW 2.3 mph3.7 kmh 26.90 in910.9 mb - 0.00 in0.0 mm 0.00 in0.0 mm
11:20 AM 56.0°F13.3°C 16.6°F-8.6°C 21% 2.3 mph SW3.7 kmh SW 3.5 mph5.6 kmh 26.90 in910.9 mb - 0.00 in0.0 mm 0.00 in0.0 mm
11:25 AM 56.0°F13.3°C 17.6°F-8.0°C 22% 3.5 mph SSW5.6 kmh SSW 3.5 mph5.6 kmh 26.89 in910.6 mb - 0.00 in0.0 mm 0.00 in0.0 mm
11:30 AM 56.0°F13.3°C 19.7°F-6.8°C 24% 3.5 mph WSW5.6 kmh WSW 3.5 mph5.6 kmh 26.89 in910.6 mb - 0.00 in0.0 mm 0.00 in0.0 mm
11:35 AM 56.0°F13.3°C 19.7°F-6.8°C 24% 2.3 mph WSW3.7 kmh WSW 3.5 mph5.6 kmh 26.89 in910.6 mb - 0.00 in0.0 mm 0.00 in0.0 mm
11:40 AM 57.0°F13.9°C 20.5°F-6.4°C 24% 1.2 mph NW1.9 kmh NW 2.3 mph3.7 kmh 26.90 in910.9 mb - 0.00 in0.0 mm 0.00 in0.0 mm
11:45 AM 58.0°F14.4°C 17.1°F-8.3°C 20% Calm Calm -- 26.89 in910.6 mb - 0.00 in0.0 mm 0.00 in0.0 mm
11:50 AM 60.0°F15.6°C 18.8°F-7.3°C 20% 2.3 mph NW3.7 kmh NW 3.5 mph5.6 kmh 26.88 in910.3 mb - 0.00 in0.0 mm 0.00 in0.0 mm
11:55 AM 60.0°F15.6°C 21.0°F-6.1°C 22% 2.3 mph NW3.7 kmh NW 2.3 mph3.7 kmh 26.88 in910.3 mb - 0.00 in0.0 mm 0.00 in0.0 mm
12:00 PM 59.0°F15.0°C 21.2°F-6.0°C 23% 2.3 mph NW3.7 kmh NW 2.3 mph3.7 kmh 26.87 in909.9 mb - 0.00 in0.0 mm 0.00 in0.0 mm
12:10 PM 59.0°F15.0°C 19.1°F-7.2°C 21% 2.3 mph NW3.7 kmh NW 3.5 mph5.6 kmh 26.87 in909.9 mb - 0.00 in0.0 mm 0.00 in0.0 mm
12:15 PM 59.0°F15.0°C 19.1°F-7.2°C 21% 1.2 mph NW1.9 kmh NW 2.3 mph3.7 kmh 26.86 in909.6 mb - 0.00 in0.0 mm 0.00 in0.0 mm
12:20 PM 59.0°F15.0°C 19.1°F-7.2°C 21% 1.2 mph NW1.9 kmh NW 2.3 mph3.7 kmh 26.87 in909.9 mb - 0.00 in0.0 mm 0.00 in0.0 mm
12:25 PM 60.0°F15.6°C 22.0°F-5.6°C 23% 2.3 mph NW3.7 kmh NW 3.5 mph5.6 kmh 26.87 in909.9 mb - 0.00 in0.0 mm 0.00 in0.0 mm
12:30 PM 59.0°F15.0°C 20.2°F-6.6°C 22% 2.3 mph N3.7 kmh N 2.3 mph3.7 kmh 26.87 in909.9 mb - 0.00 in0.0 mm 0.00 in0.0 mm
12:35 PM 59.0°F15.0°C 23.2°F-4.9°C 25% 2.3 mph W3.7 kmh W 2.3 mph3.7 kmh 26.87 in909.9 mb - 0.00 in0.0 mm 0.00 in0.0 mm
12:40 PM 60.0°F15.6°C 23.1°F-4.9°C 24% 2.3 mph W3.7 kmh W 3.5 mph5.6 kmh 26.86 in909.6 mb - 0.00 in0.0 mm 0.00 in0.0 mm
12:45 PM 60.0°F15.6°C 21.0°F-6.1°C 22% 2.3 mph NW3.7 kmh NW 3.5 mph5.6 kmh 26.87 in909.9 mb - 0.00 in0.0 mm 0.00 in0.0 mm
12:50 PM 60.0°F15.6°C 23.1°F-4.9°C 24% 2.3 mph N3.7 kmh N 2.3 mph3.7 kmh 26.86 in909.6 mb - 0.00 in0.0 mm 0.00 in0.0 mm
12:55 PM 60.6°F15.9°C 22.6°F-5.2°C 23% 2.3 mph NW3.7 kmh NW 2.3 mph3.7 kmh 26.86 in909.6 mb - 0.00 in0.0 mm 0.00 in0.0 mm
01:00 PM 61.0°F16.1°C 21.8°F-5.7°C 22% 2.3 mph NW3.7 kmh NW 3.5 mph5.6 kmh 26.86 in909.6 mb - 0.00 in0.0 mm 0.00 in0.0 mm
01:10 PM 61.0°F16.1°C 26.7°F-2.9°C 27% 2.3 mph NW3.7 kmh NW 3.5 mph5.6 kmh 26.86 in909.6 mb - 0.00 in0.0 mm 0.00 in0.0 mm
01:15 PM 61.0°F16.1°C 23.9°F-4.5°C 24% 3.5 mph NW5.6 kmh NW 3.5 mph5.6 kmh 26.86 in909.6 mb - 0.00 in0.0 mm 0.00 in0.0 mm
01:20 PM 60.0°F15.6°C 25.0°F-3.9°C 26% 2.3 mph NW3.7 kmh NW 2.3 mph3.7 kmh 26.85 in909.2 mb - 0.00 in0.0 mm 0.00 in0.0 mm
01:25 PM 60.0°F15.6°C 22.0°F-5.6°C 23% 2.3 mph NW3.7 kmh NW 3.5 mph5.6 kmh 26.85 in909.2 mb - 0.00 in0.0 mm 0.00 in0.0 mm
01:30 PM 61.0°F16.1°C 24.9°F-3.9°C 25% 1.2 mph NNW1.9 kmh NNW 1.2 mph1.9 kmh 26.85 in909.2 mb - 0.00 in0.0 mm 0.00 in0.0 mm
01:35 PM 62.0°F16.7°C 23.7°F-4.6°C 23% 2.3 mph NNW3.7 kmh NNW 2.3 mph3.7 kmh 26.85 in909.2 mb - 0.00 in0.0 mm 0.00 in0.0 mm
01:40 PM 62.0°F16.7°C 24.8°F-4.0°C 24% 2.3 mph NNW3.7 kmh NNW 3.5 mph5.6 kmh 26.84 in908.9 mb - 0.00 in0.0 mm 0.00 in0.0 mm
01:45 PM 62.0°F16.7°C 25.7°F-3.5°C 25% 2.3 mph NNW3.7 kmh NNW 3.5 mph5.6 kmh 26.84 in908.9 mb - 0.00 in0.0 mm 0.00 in0.0 mm
01:50 PM 62.0°F16.7°C 26.7°F-2.9°C 26% 3.5 mph NNW5.6 kmh NNW 3.5 mph5.6 kmh 26.85 in909.2 mb - 0.00 in0.0 mm 0.00 in0.0 mm
01:55 PM 62.0°F16.7°C 26.7°F-2.9°C 26% 2.3 mph WSW3.7 kmh WSW 3.5 mph5.6 kmh 26.84 in908.9 mb - 0.00 in0.0 mm 0.00 in0.0 mm
02:00 PM 62.0°F16.7°C 23.7°F-4.6°C 23% 2.3 mph NW3.7 kmh NW 2.3 mph3.7 kmh 26.85 in909.2 mb - 0.00 in0.0 mm 0.00 in0.0 mm
02:10 PM 62.0°F16.7°C 24.8°F-4.0°C 24% 2.3 mph NW3.7 kmh NW 5.8 mph9.3 kmh 26.84 in908.9 mb - 0.00 in0.0 mm 0.00 in0.0 mm
02:15 PM 62.0°F16.7°C 27.6°F-2.4°C 27% 2.3 mph WNW3.7 kmh WNW 3.5 mph5.6 kmh 26.84 in908.9 mb - 0.00 in0.0 mm 0.00 in0.0 mm
02:20 PM 62.0°F16.7°C 24.8°F-4.0°C 24% 3.5 mph NNW5.6 kmh NNW 5.8 mph9.3 kmh 26.84 in908.9 mb - 0.00 in0.0 mm 0.00 in0.0 mm
02:25 PM 62.0°F16.7°C 25.7°F-3.5°C 25% 2.3 mph NW3.7 kmh NW 3.5 mph5.6 kmh 26.84 in908.9 mb - 0.00 in0.0 mm 0.00 in0.0 mm
02:30 PM 62.0°F16.7°C 23.7°F-4.6°C 23% 2.3 mph NNW3.7 kmh NNW 3.5 mph5.6 kmh 26.84 in908.9 mb - 0.00 in0.0 mm 0.00 in0.0 mm
02:35 PM 61.0°F16.1°C 22.9°F-5.1°C 23% 2.3 mph NNW3.7 kmh NNW 3.5 mph5.6 kmh 26.84 in908.9 mb - 0.00 in0.0 mm 0.00 in0.0 mm
02:40 PM 61.0°F16.1°C 23.9°F-4.5°C 24% 2.3 mph NNW3.7 kmh NNW 3.5 mph5.6 kmh 26.84 in908.9 mb - 0.00 in0.0 mm 0.00 in0.0 mm
02:45 PM 62.0°F16.7°C 24.8°F-4.0°C 24% 2.3 mph NW3.7 kmh NW 2.3 mph3.7 kmh 26.84 in908.9 mb - 0.00 in0.0 mm 0.00 in0.0 mm
02:50 PM 62.0°F16.7°C 24.8°F-4.0°C 24% 3.5 mph WNW5.6 kmh WNW 3.5 mph5.6 kmh 26.84 in908.9 mb - 0.00 in0.0 mm 0.00 in0.0 mm
02:55 PM 62.0°F16.7°C 25.7°F-3.5°C 25% 3.5 mph WSW5.6 kmh WSW 3.5 mph5.6 kmh 26.84 in908.9 mb - 0.00 in0.0 mm 0.00 in0.0 mm
03:00 PM 62.0°F16.7°C 23.7°F-4.6°C 23% 3.5 mph W5.6 kmh W 3.5 mph5.6 kmh 26.83 in908.6 mb - 0.00 in0.0 mm 0.00 in0.0 mm
03:10 PM 62.0°F16.7°C 23.7°F-4.6°C 23% 1.2 mph NW1.9 kmh NW 2.3 mph3.7 kmh 26.83 in908.6 mb - 0.00 in0.0 mm 0.00 in0.0 mm
03:15 PM 62.0°F16.7°C 22.7°F-5.2°C 22% 1.2 mph NW1.9 kmh NW 2.3 mph3.7 kmh 26.84 in908.9 mb - 0.00 in0.0 mm 0.00 in0.0 mm
03:20 PM 62.8°F17.1°C 23.3°F-4.8°C 22% 2.3 mph NW3.7 kmh NW 2.3 mph3.7 kmh 26.83 in908.6 mb - 0.00 in0.0 mm 0.00 in0.0 mm
03:25 PM 63.0°F17.2°C 22.4°F-5.3°C 21% 1.2 mph NW1.9 kmh NW 2.3 mph3.7 kmh 26.83 in908.6 mb - 0.00 in0.0 mm 0.00 in0.0 mm
03:30 PM 63.0°F17.2°C 21.2°F-6.0°C 20% Calm Calm -- 26.83 in908.6 mb - 0.00 in0.0 mm 0.00 in0.0 mm
03:35 PM 64.0°F17.8°C 24.4°F-4.2°C 22% 2.3 mph WSW3.7 kmh WSW 3.5 mph5.6 kmh 26.83 in908.6 mb - 0.00 in0.0 mm 0.00 in0.0 mm
03:40 PM 63.0°F17.2°C 21.2°F-6.0°C 20% 2.3 mph WNW3.7 kmh WNW 3.5 mph5.6 kmh 26.83 in908.6 mb - 0.00 in0.0 mm 0.00 in0.0 mm
03:45 PM 63.0°F17.2°C 22.4°F-5.3°C 21% 2.3 mph NNW3.7 kmh NNW 2.3 mph3.7 kmh 26.83 in908.6 mb - 0.00 in0.0 mm 0.00 in0.0 mm
03:50 PM 64.0°F17.8°C 23.2°F-4.9°C 21% 1.2 mph N1.9 kmh N 2.3 mph3.7 kmh 26.83 in908.6 mb - 0.00 in0.0 mm 0.00 in0.0 mm
03:55 PM 63.0°F17.2°C 22.4°F-5.3°C 21% 1.2 mph W1.9 kmh W 2.3 mph3.7 kmh 26.83 in908.6 mb - 0.00 in0.0 mm 0.00 in0.0 mm
04:00 PM 62.0°F16.7°C 24.8°F-4.0°C 24% Calm Calm 1.2 mph1.9 kmh 26.83 in908.6 mb - 0.00 in0.0 mm 0.00 in0.0 mm
04:10 PM 63.7°F17.6°C 21.8°F-5.7°C 20% Calm Calm 1.2 mph1.9 kmh 26.83 in908.6 mb - 0.00 in0.0 mm 0.00 in0.0 mm
04:15 PM 64.5°F18.1°C 21.3°F-5.9°C 19% Calm Calm 1.2 mph1.9 kmh 26.83 in908.6 mb - 0.00 in0.0 mm 0.00 in0.0 mm
04:20 PM 67.0°F19.4°C 24.6°F-4.1°C 20% Calm Calm 1.2 mph1.9 kmh 26.83 in908.6 mb - 0.00 in0.0 mm 0.00 in0.0 mm
04:25 PM 69.0°F20.6°C 25.0°F-3.9°C 19% Calm Calm -- 26.82 in908.2 mb - 0.00 in0.0 mm 0.00 in0.0 mm
04:30 PM 69.0°F20.6°C 25.0°F-3.9°C 19% Calm Calm 1.2 mph1.9 kmh 26.82 in908.2 mb - 0.00 in0.0 mm 0.00 in0.0 mm
04:35 PM 68.0°F20.0°C 25.4°F-3.7°C 20% 1.2 mph NW1.9 kmh NW 1.2 mph1.9 kmh 26.83 in908.6 mb - 0.00 in0.0 mm 0.00 in0.0 mm
04:40 PM 67.0°F19.4°C 25.7°F-3.5°C 21% Calm Calm -- 26.82 in908.2 mb - 0.00 in0.0 mm 0.00 in0.0 mm
04:45 PM 65.0°F18.3°C 25.2°F-3.8°C 22% Calm Calm -- 26.83 in908.6 mb - 0.00 in0.0 mm 0.00 in0.0 mm
04:50 PM 63.0°F17.2°C 22.4°F-5.3°C 21% Calm Calm 1.2 mph1.9 kmh 26.83 in908.6 mb - 0.00 in0.0 mm 0.00 in0.0 mm
04:55 PM 60.0°F15.6°C 23.1°F-4.9°C 24% Calm Calm -- 26.83 in908.6 mb - 0.00 in0.0 mm 0.00 in0.0 mm
05:00 PM 58.8°F14.9°C 23.0°F-5.0°C 25% Calm Calm -- 26.83 in908.6 mb - 0.00 in0.0 mm 0.00 in0.0 mm
05:10 PM 56.0°F13.3°C 21.6°F-5.8°C 26% Calm Calm -- 26.83 in908.6 mb - 0.00 in0.0 mm 0.00 in0.0 mm
05:15 PM 56.0°F13.3°C 25.0°F-3.9°C 30% Calm Calm -- 26.83 in908.6 mb - 0.00 in0.0 mm 0.00 in0.0 mm
05:20 PM 54.0°F12.2°C 26.9°F-2.8°C 35% Calm Calm -- 26.84 in908.9 mb - 0.00 in0.0 mm 0.00 in0.0 mm
05:25 PM 53.0°F11.7°C 24.6°F-4.1°C 33% Calm Calm -- 26.84 in908.9 mb - 0.00 in0.0 mm 0.00 in0.0 mm
05:30 PM 53.0°F11.7°C 26.7°F-2.9°C 36% Calm Calm -- 26.84 in908.9 mb - 0.00 in0.0 mm 0.00 in0.0 mm
05:35 PM 53.0°F11.7°C 28.7°F-1.8°C 39% Calm Calm -- 26.84 in908.9 mb - 0.00 in0.0 mm 0.00 in0.0 mm
05:40 PM 53.0°F11.7°C 26.0°F-3.3°C 35% Calm Calm -- 26.85 in909.2 mb - 0.00 in0.0 mm 0.00 in0.0 mm
05:45 PM 52.0°F11.1°C 27.1°F-2.7°C 38% Calm Calm -- 26.85 in909.2 mb - 0.00 in0.0 mm 0.00 in0.0 mm
05:50 PM 52.0°F11.1°C 25.8°F-3.4°C 36% Calm Calm -- 26.86 in909.6 mb - 0.00 in0.0 mm 0.00 in0.0 mm
05:55 PM 52.0°F11.1°C 24.5°F-4.2°C 34% Calm Calm -- 26.86 in909.6 mb - 0.00 in0.0 mm 0.00 in0.0 mm
06:00 PM 51.0°F10.6°C 26.3°F-3.2°C 38% Calm Calm -- 26.86 in909.6 mb - 0.00 in0.0 mm 0.00 in0.0 mm
06:10 PM 49.0°F9.4°C 26.9°F-2.8°C 42% Calm Calm -- 26.86 in909.6 mb - 0.00 in0.0 mm 0.00 in0.0 mm
06:15 PM 49.0°F9.4°C 26.9°F-2.8°C 42% Calm Calm -- 26.85 in909.2 mb - 0.00 in0.0 mm 0.00 in0.0 mm
06:20 PM 50.0°F10.0°C 26.6°F-3.0°C 40% Calm Calm -- 26.87 in909.9 mb - 0.00 in0.0 mm 0.00 in0.0 mm
06:25 PM 49.0°F9.4°C 26.9°F-2.8°C 42% Calm Calm -- 26.87 in909.9 mb - 0.00 in0.0 mm 0.00 in0.0 mm
06:30 PM 48.0°F8.9°C 26.0°F-3.3°C 42% Calm Calm -- 26.87 in909.9 mb - 0.00 in0.0 mm 0.00 in0.0 mm
06:35 PM 48.0°F8.9°C 26.0°F-3.3°C 42% Calm Calm -- 26.88 in910.3 mb - 0.00 in0.0 mm 0.00 in0.0 mm
06:40 PM 48.0°F8.9°C 27.6°F-2.4°C 45% Calm Calm -- 26.88 in910.3 mb - 0.00 in0.0 mm 0.00 in0.0 mm
06:45 PM 48.0°F8.9°C 29.7°F-1.3°C 49% Calm Calm -- 26.88 in910.3 mb - 0.00 in0.0 mm 0.00 in0.0 mm
06:50 PM 47.0°F8.3°C 27.3°F-2.6°C 46% Calm Calm -- 26.88 in910.3 mb - 0.00 in0.0 mm 0.00 in0.0 mm
06:55 PM 47.0°F8.3°C 27.8°F-2.3°C 47% Calm Calm -- 26.88 in910.3 mb - 0.00 in0.0 mm 0.00 in0.0 mm
07:00 PM 47.0°F8.3°C 30.3°F-0.9°C 52% Calm Calm -- 26.88 in910.3 mb - 0.00 in0.0 mm 0.00 in0.0 mm
07:10 PM 45.0°F7.2°C 26.5°F-3.1°C 48% Calm Calm -- 26.88 in910.3 mb - 0.00 in0.0 mm 0.00 in0.0 mm
07:15 PM 45.7°F7.6°C 27.1°F-2.7°C 48% Calm Calm -- 26.88 in910.3 mb - 0.00 in0.0 mm 0.00 in0.0 mm
07:20 PM 46.0°F7.8°C 27.4°F-2.6°C 48% Calm Calm -- 26.88 in910.3 mb - 0.00 in0.0 mm 0.00 in0.0 mm
07:25 PM 46.0°F7.8°C 27.9°F-2.3°C 49% Calm Calm -- 26.89 in910.6 mb - 0.00 in0.0 mm 0.00 in0.0 mm
07:30 PM 46.0°F7.8°C 27.9°F-2.3°C 49% Calm Calm -- 26.89 in910.6 mb - 0.00 in0.0 mm 0.00 in0.0 mm
07:35 PM 46.0°F7.8°C 27.4°F-2.6°C 48% Calm Calm -- 26.89 in910.6 mb - 0.00 in0.0 mm 0.00 in0.0 mm
07:40 PM 45.0°F7.2°C 26.5°F-3.1°C 48% Calm Calm -- 26.90 in910.9 mb - 0.00 in0.0 mm 0.00 in0.0 mm
07:45 PM 44.0°F6.7°C 26.0°F-3.3°C 49% Calm Calm -- 26.89 in910.6 mb - 0.00 in0.0 mm 0.00 in0.0 mm
07:50 PM 44.0°F6.7°C 26.5°F-3.1°C 50% Calm Calm -- 26.90 in910.9 mb - 0.00 in0.0 mm 0.00 in0.0 mm
07:55 PM 44.0°F6.7°C 26.5°F-3.1°C 50% Calm Calm -- 26.90 in910.9 mb - 0.00 in0.0 mm 0.00 in0.0 mm
08:00 PM 44.0°F6.7°C 26.0°F-3.3°C 49% Calm Calm -- 26.90 in910.9 mb - 0.00 in0.0 mm 0.00 in0.0 mm
08:10 PM 44.0°F6.7°C 25.5°F-3.6°C 48% Calm Calm -- 26.90 in910.9 mb - 0.00 in0.0 mm 0.00 in0.0 mm
08:15 PM 44.0°F6.7°C 26.5°F-3.1°C 50% Calm Calm -- 26.91 in911.3 mb - 0.00 in0.0 mm 0.00 in0.0 mm
08:20 PM 43.0°F6.1°C 25.6°F-3.6°C 50% Calm Calm -- 26.90 in910.9 mb - 0.00 in0.0 mm 0.00 in0.0 mm
08:25 PM 44.0°F6.7°C 24.5°F-4.2°C 46% Calm Calm -- 26.91 in911.3 mb - 0.00 in0.0 mm 0.00 in0.0 mm
08:30 PM 44.0°F6.7°C 25.5°F-3.6°C 48% Calm Calm -- 26.90 in910.9 mb - 0.00 in0.0 mm 0.00 in0.0 mm
08:35 PM 44.0°F6.7°C 26.0°F-3.3°C 49% Calm Calm -- 26.90 in910.9 mb - 0.00 in0.0 mm 0.00 in0.0 mm
08:40 PM 43.0°F6.1°C 26.1°F-3.3°C 51% Calm Calm -- 26.90 in910.9 mb - 0.00 in0.0 mm 0.00 in0.0 mm
08:45 PM 44.0°F6.7°C 24.5°F-4.2°C 46% Calm Calm -- 26.91 in911.3 mb - 0.00 in0.0 mm 0.00 in0.0 mm
08:50 PM 44.0°F6.7°C 25.0°F-3.9°C 47% Calm Calm -- 26.90 in910.9 mb - 0.00 in0.0 mm 0.00 in0.0 mm
08:55 PM 43.0°F6.1°C 24.6°F-4.1°C 48% Calm Calm -- 26.90 in910.9 mb - 0.00 in0.0 mm 0.00 in0.0 mm
09:00 PM 44.0°F6.7°C 26.5°F-3.1°C 50% Calm Calm -- 26.91 in911.3 mb - 0.00 in0.0 mm 0.00 in0.0 mm
09:10 PM 43.4°F6.3°C 25.0°F-3.9°C 48% Calm Calm -- 26.91 in911.3 mb - 0.00 in0.0 mm 0.00 in0.0 mm
09:15 PM 44.0°F6.7°C 25.5°F-3.6°C 48% Calm Calm -- 26.91 in911.3 mb - 0.00 in0.0 mm 0.00 in0.0 mm
09:20 PM 43.0°F6.1°C 25.6°F-3.6°C 50% Calm Calm -- 26.90 in910.9 mb - 0.00 in0.0 mm 0.00 in0.0 mm
09:25 PM 42.0°F5.6°C 25.6°F-3.6°C 52% Calm Calm -- 26.91 in911.3 mb - 0.00 in0.0 mm 0.00 in0.0 mm
09:30 PM 42.0°F5.6°C 24.2°F-4.3°C 49% Calm Calm -- 26.91 in911.3 mb - 0.00 in0.0 mm 0.00 in0.0 mm
09:35 PM 43.0°F6.1°C 24.1°F-4.4°C 47% Calm Calm -- 26.91 in911.3 mb - 0.00 in0.0 mm 0.00 in0.0 mm
09:40 PM 43.0°F6.1°C 23.6°F-4.7°C 46% Calm Calm 1.2 mph1.9 kmh 26.91 in911.3 mb - 0.00 in0.0 mm 0.00 in0.0 mm
09:45 PM 43.8°F6.6°C 24.3°F-4.3°C 46% Calm Calm 1.2 mph1.9 kmh 26.91 in911.3 mb - 0.00 in0.0 mm 0.00 in0.0 mm
09:50 PM 43.9°F6.6°C 24.4°F-4.2°C 46% Calm Calm -- 26.91 in911.3 mb - 0.00 in0.0 mm 0.00 in0.0 mm
09:55 PM 43.0°F6.1°C 25.6°F-3.6°C 50% Calm Calm -- 26.91 in911.3 mb - 0.00 in0.0 mm 0.00 in0.0 mm
10:00 PM 42.0°F5.6°C 26.1°F-3.3°C 53% Calm Calm -- 26.91 in911.3 mb - 0.00 in0.0 mm 0.00 in0.0 mm
10:10 PM 41.0°F5.0°C 24.2°F-4.3°C 51% Calm Calm -- 26.90 in910.9 mb - 0.00 in0.0 mm 0.00 in0.0 mm
10:15 PM 42.0°F5.6°C 23.7°F-4.6°C 48% Calm Calm -- 26.90 in910.9 mb - 0.00 in0.0 mm 0.00 in0.0 mm
10:20 PM 42.0°F5.6°C 25.6°F-3.6°C 52% Calm Calm -- 26.91 in911.3 mb - 0.00 in0.0 mm 0.00 in0.0 mm
10:25 PM 41.6°F5.3°C 25.7°F-3.5°C 53% Calm Calm -- 26.91 in911.3 mb - 0.00 in0.0 mm 0.00 in0.0 mm
10:30 PM 41.0°F5.0°C 25.6°F-3.6°C 54% Calm Calm -- 26.90 in910.9 mb - 0.00 in0.0 mm 0.00 in0.0 mm
10:35 PM 42.0°F5.6°C 24.7°F-4.1°C 50% Calm Calm -- 26.91 in911.3 mb - 0.00 in0.0 mm 0.00 in0.0 mm
10:40 PM 41.0°F5.0°C 24.2°F-4.3°C 51% Calm Calm -- 26.91 in911.3 mb - 0.00 in0.0 mm 0.00 in0.0 mm
10:45 PM 40.0°F4.4°C 23.8°F-4.6°C 52% Calm Calm -- 26.91 in911.3 mb - 0.00 in0.0 mm 0.00 in0.0 mm
10:50 PM 41.0°F5.0°C 23.8°F-4.6°C 50% Calm Calm -- 26.90 in910.9 mb - 0.00 in0.0 mm 0.00 in0.0 mm
10:55 PM 41.0°F5.0°C 23.8°F-4.6°C 50% Calm Calm -- 26.90 in910.9 mb - 0.00 in0.0 mm 0.00 in0.0 mm
11:00 PM 39.4°F4.1°C 23.2°F-4.9°C 52% Calm Calm -- 26.90 in910.9 mb - 0.00 in0.0 mm 0.00 in0.0 mm
11:10 PM 40.0°F4.4°C 24.2°F-4.3°C 53% Calm Calm -- 26.90 in910.9 mb - 0.00 in0.0 mm 0.00 in0.0 mm
11:15 PM 39.0°F3.9°C 25.5°F-3.6°C 58% Calm Calm -- 26.90 in910.9 mb - 0.00 in0.0 mm 0.00 in0.0 mm
11:20 PM 39.0°F3.9°C 22.8°F-5.1°C 52% Calm Calm -- 26.90 in910.9 mb - 0.00 in0.0 mm 0.00 in0.0 mm
11:25 PM 40.0°F4.4°C 23.8°F-4.6°C 52% Calm Calm -- 26.90 in910.9 mb - 0.00 in0.0 mm 0.00 in0.0 mm
11:30 PM 39.0°F3.9°C 23.3°F-4.8°C 53% Calm Calm -- 26.90 in910.9 mb - 0.00 in0.0 mm 0.00 in0.0 mm
11:35 PM 40.0°F4.4°C 23.8°F-4.6°C 52% Calm Calm -- 26.90 in910.9 mb - 0.00 in0.0 mm 0.00 in0.0 mm
11:40 PM 39.5°F4.2°C 23.8°F-4.6°C 53% Calm Calm -- 26.90 in910.9 mb - 0.00 in0.0 mm 0.00 in0.0 mm
11:45 PM 39.0°F3.9°C 23.7°F-4.6°C 54% Calm Calm -- 26.90 in910.9 mb - 0.00 in0.0 mm 0.00 in0.0 mm
11:50 PM 39.0°F3.9°C 23.7°F-4.6°C 54% Calm Calm 1.2 mph1.9 kmh 26.90 in910.9 mb - 0.00 in0.0 mm 0.00 in0.0 mm
11:55 PM 40.0°F4.4°C 24.7°F-4.1°C 54% Calm Calm -- 26.90 in910.9 mb - 0.00 in0.0 mm 0.00 in0.0 mm